sensor_id;sensor_type;location;lat;lon;timestamp;noise_LAeq;noise_LA_min;noise_LA_max;noise_LA01;noise_LA95
67320;Laerm;57665;51.436;5.978;2022-11-20T00:00:04;39.73;38.55;42.34;;
67320;Laerm;57665;51.436;5.978;2022-11-20T00:00:15;39.83;38.13;41.59;;
67320;Laerm;57665;51.436;5.978;2022-11-20T00:00:26;40.18;38.64;41.69;;
67320;Laerm;57665;51.436;5.978;2022-11-20T00:00:36;41.65;39.00;46.98;;
67320;Laerm;57665;51.436;5.978;2022-11-20T00:00:47;49.86;40.79;56.72;;
67320;Laerm;57665;51.436;5.978;2022-11-20T00:01:03;41.24;39.09;44.26;;
67320;Laerm;57665;51.436;5.978;2022-11-20T00:01:18;40.84;39.05;45.84;;
67320;Laerm;57665;51.436;5.978;2022-11-20T00:01:31;41.11;39.56;44.49;;
67320;Laerm;57665;51.436;5.978;2022-11-20T00:01:42;40.97;39.15;42.64;;
67320;Laerm;57665;51.436;5.978;2022-11-20T00:01:52;41.35;40.05;42.89;;
67320;Laerm;57665;51.436;5.978;2022-11-20T00:02:03;41.56;40.36;42.91;;
67320;Laerm;57665;51.436;5.978;2022-11-20T00:02:13;41.70;39.94;45.84;;
67320;Laerm;57665;51.436;5.978;2022-11-20T00:02:23;41.67;40.37;45.36;;
67320;Laerm;57665;51.436;5.978;2022-11-20T00:02:33;40.95;39.17;43.64;;
67320;Laerm;57665;51.436;5.978;2022-11-20T00:02:44;39.58;37.83;41.45;;
67320;Laerm;57665;51.436;5.978;2022-11-20T00:02:57;39.34;37.89;40.90;;
67320;Laerm;57665;51.436;5.978;2022-11-20T00:03:07;39.44;37.96;41.27;;
67320;Laerm;57665;51.436;5.978;2022-11-20T00:03:17;40.23;38.65;46.26;;
67320;Laerm;57665;51.436;5.978;2022-11-20T00:03:27;40.03;38.59;42.03;;
67320;Laerm;57665;51.436;5.978;2022-11-20T00:03:38;53.18;38.71;65.94;;
67320;Laerm;57665;51.436;5.978;2022-11-20T00:03:48;67.46;42.60;75.18;;
67320;Laerm;57665;51.436;5.978;2022-11-20T00:03:59;41.14;39.03;44.59;;
67320;Laerm;57665;51.436;5.978;2022-11-20T00:04:10;40.82;38.51;46.81;;
67320;Laerm;57665;51.436;5.978;2022-11-20T00:04:20;39.69;38.19;41.33;;
67320;Laerm;57665;51.436;5.978;2022-11-20T00:04:30;39.81;38.25;41.16;;
67320;Laerm;57665;51.436;5.978;2022-11-20T00:04:40;40.12;38.48;42.42;;
67320;Laerm;57665;51.436;5.978;2022-11-20T00:04:51;40.21;38.30;42.86;;
67320;Laerm;57665;51.436;5.978;2022-11-20T00:05:01;40.09;38.30;41.94;;
67320;Laerm;57665;51.436;5.978;2022-11-20T00:05:11;40.57;39.00;43.21;;
67320;Laerm;57665;51.436;5.978;2022-11-20T00:05:21;40.93;39.05;43.53;;
67320;Laerm;57665;51.436;5.978;2022-11-20T00:05:32;40.74;39.04;43.30;;
67320;Laerm;57665;51.436;5.978;2022-11-20T00:05:43;41.02;39.38;45.92;;
67320;Laerm;57665;51.436;5.978;2022-11-20T00:05:53;40.94;39.59;43.25;;
67320;Laerm;57665;51.436;5.978;2022-11-20T00:06:04;41.14;39.62;43.41;;
67320;Laerm;57665;51.436;5.978;2022-11-20T00:06:15;41.32;39.79;43.76;;
67320;Laerm;57665;51.436;5.978;2022-11-20T00:06:26;41.49;39.98;43.76;;
67320;Laerm;57665;51.436;5.978;2022-11-20T00:06:37;41.36;39.41;43.84;;
67320;Laerm;57665;51.436;5.978;2022-11-20T00:06:47;39.75;38.11;41.76;;
67320;Laerm;57665;51.436;5.978;2022-11-20T00:06:57;39.35;37.98;41.43;;
67320;Laerm;57665;51.436;5.978;2022-11-20T00:07:08;39.64;37.97;42.97;;
67320;Laerm;57665;51.436;5.978;2022-11-20T00:07:18;39.66;37.59;42.62;;
67320;Laerm;57665;51.436;5.978;2022-11-20T00:07:28;40.12;38.40;43.13;;
67320;Laerm;57665;51.436;5.978;2022-11-20T00:07:38;40.26;38.27;42.95;;
67320;Laerm;57665;51.436;5.978;2022-11-20T00:07:48;39.99;38.28;42.45;;
67320;Laerm;57665;51.436;5.978;2022-11-20T00:07:59;39.87;38.39;43.06;;
67320;Laerm;57665;51.436;5.978;2022-11-20T00:08:09;40.24;38.32;42.98;;
67320;Laerm;57665;51.436;5.978;2022-11-20T00:08:19;40.10;38.64;42.58;;
67320;Laerm;57665;51.436;5.978;2022-11-20T00:08:30;40.27;38.35;42.83;;
67320;Laerm;57665;51.436;5.978;2022-11-20T00:08:40;40.41;38.37;43.04;;
67320;Laerm;57665;51.436;5.978;2022-11-20T00:08:51;42.03;39.15;46.46;;
67320;Laerm;57665;51.436;5.978;2022-11-20T00:09:03;40.54;38.70;45.06;;
67320;Laerm;57665;51.436;5.978;2022-11-20T00:09:15;40.97;39.45;49.26;;
67320;Laerm;57665;51.436;5.978;2022-11-20T00:09:25;40.67;39.36;42.41;;
67320;Laerm;57665;51.436;5.978;2022-11-20T00:09:35;40.94;39.25;42.37;;
67320;Laerm;57665;51.436;5.978;2022-11-20T00:09:45;40.94;39.17;42.19;;
67320;Laerm;57665;51.436;5.978;2022-11-20T00:09:56;41.17;39.91;42.58;;
67320;Laerm;57665;51.436;5.978;2022-11-20T00:10:09;42.20;39.99;51.73;;
67320;Laerm;57665;51.436;5.978;2022-11-20T00:10:19;41.44;40.22;43.06;;
67320;Laerm;57665;51.436;5.978;2022-11-20T00:10:29;41.37;39.66;42.72;;
67320;Laerm;57665;51.436;5.978;2022-11-20T00:10:40;39.69;37.96;42.05;;
67320;Laerm;57665;51.436;5.978;2022-11-20T00:10:50;39.09;37.69;40.21;;
67320;Laerm;57665;51.436;5.978;2022-11-20T00:11:04;39.18;37.73;41.58;;
67320;Laerm;57665;51.436;5.978;2022-11-20T00:11:16;39.26;37.96;40.45;;
67320;Laerm;57665;51.436;5.978;2022-11-20T00:11:27;39.69;38.36;43.02;;
67320;Laerm;57665;51.436;5.978;2022-11-20T00:11:37;39.57;38.37;40.83;;
67320;Laerm;57665;51.436;5.978;2022-11-20T00:11:48;39.69;38.16;40.93;;
67320;Laerm;57665;51.436;5.978;2022-11-20T00:11:58;41.30;38.89;44.83;;
67320;Laerm;57665;51.436;5.978;2022-11-20T00:12:08;42.50;39.68;51.82;;
67320;Laerm;57665;51.436;5.978;2022-11-20T00:12:18;40.13;38.82;41.83;;
67320;Laerm;57665;51.436;5.978;2022-11-20T00:12:29;39.94;38.49;41.12;;
67320;Laerm;57665;51.436;5.978;2022-11-20T00:12:39;40.07;38.62;44.69;;
67320;Laerm;57665;51.436;5.978;2022-11-20T00:12:49;40.73;38.89;48.27;;
67320;Laerm;57665;51.436;5.978;2022-11-20T00:12:59;40.27;38.57;41.53;;
67320;Laerm;57665;51.436;5.978;2022-11-20T00:13:09;40.54;39.33;41.91;;
67320;Laerm;57665;51.436;5.978;2022-11-20T00:13:20;40.68;39.19;41.94;;
67320;Laerm;57665;51.436;5.978;2022-11-20T00:13:30;40.89;39.43;42.50;;
67320;Laerm;57665;51.436;5.978;2022-11-20T00:13:41;41.38;39.26;44.21;;
67320;Laerm;57665;51.436;5.978;2022-11-20T00:13:52;40.78;39.69;41.80;;
67320;Laerm;57665;51.436;5.978;2022-11-20T00:14:02;41.14;39.86;42.51;;
67320;Laerm;57665;51.436;5.978;2022-11-20T00:14:12;41.28;40.23;42.51;;
67320;Laerm;57665;51.436;5.978;2022-11-20T00:14:23;41.49;40.21;42.51;;
67320;Laerm;57665;51.436;5.978;2022-11-20T00:14:33;40.63;38.77;42.80;;
67320;Laerm;57665;51.436;5.978;2022-11-20T00:14:43;39.32;38.02;40.53;;
67320;Laerm;57665;51.436;5.978;2022-11-20T00:14:53;39.26;37.84;40.95;;
67320;Laerm;57665;51.436;5.978;2022-11-20T00:15:04;39.08;37.61;40.15;;
67320;Laerm;57665;51.436;5.978;2022-11-20T00:15:15;39.44;38.09;41.07;;
67320;Laerm;57665;51.436;5.978;2022-11-20T00:15:25;39.72;38.48;41.14;;
67320;Laerm;57665;51.436;5.978;2022-11-20T00:15:35;39.86;38.50;43.31;;
67320;Laerm;57665;51.436;5.978;2022-11-20T00:15:45;39.70;38.50;41.33;;
67320;Laerm;57665;51.436;5.978;2022-11-20T00:15:59;39.66;38.40;41.12;;
67320;Laerm;57665;51.436;5.978;2022-11-20T00:16:10;39.69;38.21;42.00;;
67320;Laerm;57665;51.436;5.978;2022-11-20T00:16:21;39.86;38.40;42.20;;
67320;Laerm;57665;51.436;5.978;2022-11-20T00:16:32;40.39;38.56;45.53;;
67320;Laerm;57665;51.436;5.978;2022-11-20T00:16:43;40.07;38.53;41.52;;
67320;Laerm;57665;51.436;5.978;2022-11-20T00:16:53;40.80;39.09;44.11;;
67320;Laerm;57665;51.436;5.978;2022-11-20T00:17:03;40.62;38.91;41.94;;
67320;Laerm;57665;51.436;5.978;2022-11-20T00:17:13;40.63;39.13;43.74;;
67320;Laerm;57665;51.436;5.978;2022-11-20T00:17:23;41.01;39.32;43.40;;
67320;Laerm;57665;51.436;5.978;2022-11-20T00:17:34;41.20;39.66;45.83;;
67320;Laerm;57665;51.436;5.978;2022-11-20T00:17:44;41.23;39.54;44.07;;
67320;Laerm;57665;51.436;5.978;2022-11-20T00:17:54;41.33;39.64;43.77;;
67320;Laerm;57665;51.436;5.978;2022-11-20T00:18:05;41.52;39.83;43.37;;
67320;Laerm;57665;51.436;5.978;2022-11-20T00:18:15;41.71;40.33;48.32;;
67320;Laerm;57665;51.436;5.978;2022-11-20T00:18:25;43.04;39.02;52.45;;
67320;Laerm;57665;51.436;5.978;2022-11-20T00:18:36;42.38;38.67;47.19;;
67320;Laerm;57665;51.436;5.978;2022-11-20T00:18:46;39.32;38.06;40.59;;
67320;Laerm;57665;51.436;5.978;2022-11-20T00:18:56;39.16;37.60;40.18;;
67320;Laerm;57665;51.436;5.978;2022-11-20T00:19:07;39.27;37.80;40.42;;
67320;Laerm;57665;51.436;5.978;2022-11-20T00:19:17;39.68;38.31;40.78;;
67320;Laerm;57665;51.436;5.978;2022-11-20T00:19:27;39.71;38.44;40.77;;
67320;Laerm;57665;51.436;5.978;2022-11-20T00:19:37;39.69;38.45;40.81;;
67320;Laerm;57665;51.436;5.978;2022-11-20T00:19:48;39.96;38.61;41.48;;
67320;Laerm;57665;51.436;5.978;2022-11-20T00:19:58;39.92;38.29;42.74;;
67320;Laerm;57665;51.436;5.978;2022-11-20T00:20:08;40.29;38.86;44.36;;
67320;Laerm;57665;51.436;5.978;2022-11-20T00:20:19;39.93;38.78;41.82;;
67320;Laerm;57665;51.436;5.978;2022-11-20T00:20:29;40.08;38.65;41.80;;
67320;Laerm;57665;51.436;5.978;2022-11-20T00:20:40;40.27;38.48;41.92;;
67320;Laerm;57665;51.436;5.978;2022-11-20T00:20:50;40.23;38.80;41.54;;
67320;Laerm;57665;51.436;5.978;2022-11-20T00:21:01;40.55;39.12;41.67;;
67320;Laerm;57665;51.436;5.978;2022-11-20T00:21:13;40.52;39.21;41.75;;
67320;Laerm;57665;51.436;5.978;2022-11-20T00:21:24;40.65;39.03;41.94;;
67320;Laerm;57665;51.436;5.978;2022-11-20T00:21:35;40.88;39.60;43.58;;
67320;Laerm;57665;51.436;5.978;2022-11-20T00:21:45;41.00;39.50;42.36;;
67320;Laerm;57665;51.436;5.978;2022-11-20T00:21:55;41.30;39.74;42.75;;
67320;Laerm;57665;51.436;5.978;2022-11-20T00:22:06;41.56;40.07;42.87;;
67320;Laerm;57665;51.436;5.978;2022-11-20T00:22:19;41.29;39.45;42.72;;
67320;Laerm;57665;51.436;5.978;2022-11-20T00:22:29;40.01;38.25;41.97;;
67320;Laerm;57665;51.436;5.978;2022-11-20T00:22:39;39.44;38.14;40.93;;
67320;Laerm;57665;51.436;5.978;2022-11-20T00:22:50;39.47;38.29;41.16;;
67320;Laerm;57665;51.436;5.978;2022-11-20T00:23:00;39.51;38.13;41.14;;
67320;Laerm;57665;51.436;5.978;2022-11-20T00:23:10;39.85;38.45;41.55;;
67320;Laerm;57665;51.436;5.978;2022-11-20T00:23:21;40.18;38.72;41.52;;
67320;Laerm;57665;51.436;5.978;2022-11-20T00:23:31;40.07;38.19;41.78;;
67320;Laerm;57665;51.436;5.978;2022-11-20T00:23:42;40.36;38.77;41.92;;
67320;Laerm;57665;51.436;5.978;2022-11-20T00:23:53;40.61;38.83;43.38;;
67320;Laerm;57665;51.436;5.978;2022-11-20T00:24:04;40.83;38.78;44.22;;
67320;Laerm;57665;51.436;5.978;2022-11-20T00:24:14;40.05;38.76;42.55;;
67320;Laerm;57665;51.436;5.978;2022-11-20T00:24:24;40.25;38.62;42.16;;
67320;Laerm;57665;51.436;5.978;2022-11-20T00:24:35;40.43;39.15;42.42;;
67320;Laerm;57665;51.436;5.978;2022-11-20T00:24:45;40.33;38.92;42.84;;
67320;Laerm;57665;51.436;5.978;2022-11-20T00:24:55;40.78;39.21;42.60;;
67320;Laerm;57665;51.436;5.978;2022-11-20T00:25:07;40.91;39.20;42.87;;
67320;Laerm;57665;51.436;5.978;2022-11-20T00:25:17;40.96;39.51;43.50;;
67320;Laerm;57665;51.436;5.978;2022-11-20T00:25:27;41.07;39.85;42.44;;
67320;Laerm;57665;51.436;5.978;2022-11-20T00:25:37;41.39;40.01;43.10;;
67320;Laerm;57665;51.436;5.978;2022-11-20T00:25:48;42.76;40.39;45.75;;
67320;Laerm;57665;51.436;5.978;2022-11-20T00:26:03;41.91;40.11;46.52;;
67320;Laerm;57665;51.436;5.978;2022-11-20T00:26:14;41.62;39.72;44.37;;
67320;Laerm;57665;51.436;5.978;2022-11-20T00:26:25;40.22;37.71;43.04;;
67320;Laerm;57665;51.436;5.978;2022-11-20T00:26:36;39.14;38.20;40.52;;
67320;Laerm;57665;51.436;5.978;2022-11-20T00:26:46;39.15;37.52;40.35;;
67320;Laerm;57665;51.436;5.978;2022-11-20T00:26:57;39.20;37.92;40.33;;
67320;Laerm;57665;51.436;5.978;2022-11-20T00:27:07;39.79;38.13;41.54;;
67320;Laerm;57665;51.436;5.978;2022-11-20T00:27:17;39.72;38.57;40.91;;
67320;Laerm;57665;51.436;5.978;2022-11-20T00:27:27;39.49;38.06;40.76;;
67320;Laerm;57665;51.436;5.978;2022-11-20T00:27:38;39.82;38.47;41.10;;
67320;Laerm;57665;51.436;5.978;2022-11-20T00:27:48;39.85;38.67;41.06;;
67320;Laerm;57665;51.436;5.978;2022-11-20T00:27:58;39.89;38.51;41.21;;
67320;Laerm;57665;51.436;5.978;2022-11-20T00:28:08;39.99;38.85;41.05;;
67320;Laerm;57665;51.436;5.978;2022-11-20T00:28:18;39.82;38.50;41.35;;
67320;Laerm;57665;51.436;5.978;2022-11-20T00:28:29;39.84;38.23;41.25;;
67320;Laerm;57665;51.436;5.978;2022-11-20T00:28:39;39.87;38.61;41.26;;
67320;Laerm;57665;51.436;5.978;2022-11-20T00:28:53;40.33;38.92;41.56;;
67320;Laerm;57665;51.436;5.978;2022-11-20T00:29:04;40.54;39.20;42.14;;
67320;Laerm;57665;51.436;5.978;2022-11-20T00:29:15;40.56;39.31;41.60;;
67320;Laerm;57665;51.436;5.978;2022-11-20T00:29:25;40.72;39.40;42.35;;
67320;Laerm;57665;51.436;5.978;2022-11-20T00:29:35;41.05;39.95;42.09;;
67320;Laerm;57665;51.436;5.978;2022-11-20T00:29:46;41.11;39.88;42.55;;
67320;Laerm;57665;51.436;5.978;2022-11-20T00:29:56;41.63;40.28;42.66;;
67320;Laerm;57665;51.436;5.978;2022-11-20T00:30:06;41.79;40.53;42.97;;
67320;Laerm;57665;51.436;5.978;2022-11-20T00:30:17;40.40;38.50;42.12;;
67320;Laerm;57665;51.436;5.978;2022-11-20T00:30:27;39.06;37.83;40.06;;
67320;Laerm;57665;51.436;5.978;2022-11-20T00:30:37;38.99;37.59;39.96;;
67320;Laerm;57665;51.436;5.978;2022-11-20T00:30:51;39.09;37.88;40.24;;
67320;Laerm;57665;51.436;5.978;2022-11-20T00:31:05;39.43;38.08;40.72;;
67320;Laerm;57665;51.436;5.978;2022-11-20T00:31:16;39.36;38.25;40.53;;
67320;Laerm;57665;51.436;5.978;2022-11-20T00:31:26;39.57;38.32;40.73;;
67320;Laerm;57665;51.436;5.978;2022-11-20T00:31:37;39.47;37.92;40.87;;
67320;Laerm;57665;51.436;5.978;2022-11-20T00:31:47;39.70;38.36;41.14;;
67320;Laerm;57665;51.436;5.978;2022-11-20T00:31:57;39.90;38.67;41.20;;
67320;Laerm;57665;51.436;5.978;2022-11-20T00:32:08;40.27;38.58;44.78;;
67320;Laerm;57665;51.436;5.978;2022-11-20T00:32:18;40.12;38.29;41.45;;
67320;Laerm;57665;51.436;5.978;2022-11-20T00:32:29;40.05;38.18;41.45;;
67320;Laerm;57665;51.436;5.978;2022-11-20T00:32:39;40.43;39.17;41.91;;
67320;Laerm;57665;51.436;5.978;2022-11-20T00:32:49;40.46;38.96;41.58;;
67320;Laerm;57665;51.436;5.978;2022-11-20T00:32:59;40.45;38.86;41.53;;
67320;Laerm;57665;51.436;5.978;2022-11-20T00:33:10;40.82;39.03;42.00;;
67320;Laerm;57665;51.436;5.978;2022-11-20T00:33:21;40.88;39.52;42.14;;
67320;Laerm;57665;51.436;5.978;2022-11-20T00:33:31;42.53;40.51;45.68;;
67320;Laerm;57665;51.436;5.978;2022-11-20T00:33:42;41.50;40.33;43.07;;
67320;Laerm;57665;51.436;5.978;2022-11-20T00:33:53;41.38;39.93;43.82;;
67320;Laerm;57665;51.436;5.978;2022-11-20T00:34:03;40.55;38.52;42.27;;
67320;Laerm;57665;51.436;5.978;2022-11-20T00:34:14;39.47;38.10;40.89;;
67320;Laerm;57665;51.436;5.978;2022-11-20T00:34:24;39.15;37.87;40.37;;
67320;Laerm;57665;51.436;5.978;2022-11-20T00:34:35;39.06;37.96;40.12;;
67320;Laerm;57665;51.436;5.978;2022-11-20T00:34:45;39.32;37.61;41.30;;
67320;Laerm;57665;51.436;5.978;2022-11-20T00:34:55;39.70;38.30;41.93;;
67320;Laerm;57665;51.436;5.978;2022-11-20T00:35:05;40.26;38.77;43.37;;
67320;Laerm;57665;51.436;5.978;2022-11-20T00:35:15;39.70;38.42;40.99;;
67320;Laerm;57665;51.436;5.978;2022-11-20T00:35:26;39.78;38.55;41.02;;
67320;Laerm;57665;51.436;5.978;2022-11-20T00:35:37;39.79;38.72;41.34;;
67320;Laerm;57665;51.436;5.978;2022-11-20T00:35:47;39.80;38.51;41.29;;
67320;Laerm;57665;51.436;5.978;2022-11-20T00:36:05;39.77;38.30;41.05;;
67320;Laerm;57665;51.436;5.978;2022-11-20T00:36:16;40.14;38.44;41.58;;
67320;Laerm;57665;51.436;5.978;2022-11-20T00:36:27;40.23;38.72;42.26;;
67320;Laerm;57665;51.436;5.978;2022-11-20T00:36:38;40.46;39.01;43.24;;
67320;Laerm;57665;51.436;5.978;2022-11-20T00:36:48;40.57;39.04;43.99;;
67320;Laerm;57665;51.436;5.978;2022-11-20T00:36:58;40.64;39.35;41.91;;
67320;Laerm;57665;51.436;5.978;2022-11-20T00:37:09;40.70;39.26;42.10;;
67320;Laerm;57665;51.436;5.978;2022-11-20T00:37:19;40.97;39.51;42.61;;
67320;Laerm;57665;51.436;5.978;2022-11-20T00:37:29;40.88;39.73;42.34;;
67320;Laerm;57665;51.436;5.978;2022-11-20T00:37:39;41.19;39.69;43.70;;
67320;Laerm;57665;51.436;5.978;2022-11-20T00:37:49;41.48;40.11;42.71;;
67320;Laerm;57665;51.436;5.978;2022-11-20T00:38:00;41.43;39.76;42.90;;
67320;Laerm;57665;51.436;5.978;2022-11-20T00:38:13;39.93;38.16;41.85;;
67320;Laerm;57665;51.436;5.978;2022-11-20T00:38:23;39.14;38.01;40.29;;
67320;Laerm;57665;51.436;5.978;2022-11-20T00:38:34;39.31;38.02;40.71;;
67320;Laerm;57665;51.436;5.978;2022-11-20T00:38:44;39.50;37.99;41.86;;
67320;Laerm;57665;51.436;5.978;2022-11-20T00:38:56;39.69;38.31;43.98;;
67320;Laerm;57665;51.436;5.978;2022-11-20T00:39:06;41.13;38.90;53.17;;
67320;Laerm;57665;51.436;5.978;2022-11-20T00:39:17;40.12;38.70;41.68;;
67320;Laerm;57665;51.436;5.978;2022-11-20T00:39:27;40.23;38.79;41.58;;
67320;Laerm;57665;51.436;5.978;2022-11-20T00:39:37;40.27;38.48;42.07;;
67320;Laerm;57665;51.436;5.978;2022-11-20T00:39:47;39.85;38.69;41.28;;
67320;Laerm;57665;51.436;5.978;2022-11-20T00:39:58;39.91;38.55;41.20;;
67320;Laerm;57665;51.436;5.978;2022-11-20T00:40:09;40.24;38.84;41.69;;
67320;Laerm;57665;51.436;5.978;2022-11-20T00:40:19;41.02;38.97;43.54;;
67320;Laerm;57665;51.436;5.978;2022-11-20T00:40:29;40.46;38.77;42.06;;
67320;Laerm;57665;51.436;5.978;2022-11-20T00:40:40;40.56;38.79;41.90;;
67320;Laerm;57665;51.436;5.978;2022-11-20T00:40:54;40.51;39.13;41.62;;
67320;Laerm;57665;51.436;5.978;2022-11-20T00:41:05;40.92;39.60;42.23;;
67320;Laerm;57665;51.436;5.978;2022-11-20T00:41:16;41.09;39.47;42.20;;
67320;Laerm;57665;51.436;5.978;2022-11-20T00:41:27;41.28;39.98;42.67;;
67320;Laerm;57665;51.436;5.978;2022-11-20T00:41:38;41.35;40.20;42.48;;
67320;Laerm;57665;51.436;5.978;2022-11-20T00:41:48;41.59;40.20;42.76;;
67320;Laerm;57665;51.436;5.978;2022-11-20T00:41:58;41.20;39.31;42.81;;
67320;Laerm;57665;51.436;5.978;2022-11-20T00:42:09;39.60;38.18;41.14;;
67320;Laerm;57665;51.436;5.978;2022-11-20T00:42:19;39.09;38.12;40.22;;
67320;Laerm;57665;51.436;5.978;2022-11-20T00:42:29;39.03;37.99;40.06;;
67320;Laerm;57665;51.436;5.978;2022-11-20T00:42:40;39.13;37.91;40.35;;
67320;Laerm;57665;51.436;5.978;2022-11-20T00:42:51;39.12;37.93;40.62;;
67320;Laerm;57665;51.436;5.978;2022-11-20T00:43:01;39.52;38.12;40.80;;
67320;Laerm;57665;51.436;5.978;2022-11-20T00:43:12;39.46;38.44;40.78;;
67320;Laerm;57665;51.436;5.978;2022-11-20T00:43:22;39.47;38.22;40.47;;
67320;Laerm;57665;51.436;5.978;2022-11-20T00:43:33;39.57;38.31;40.83;;
67320;Laerm;57665;51.436;5.978;2022-11-20T00:43:43;39.62;38.36;41.02;;
67320;Laerm;57665;51.436;5.978;2022-11-20T00:43:54;39.65;38.44;40.83;;
67320;Laerm;57665;51.436;5.978;2022-11-20T00:44:05;39.76;38.44;41.32;;
67320;Laerm;57665;51.436;5.978;2022-11-20T00:44:16;40.00;38.22;41.41;;
67320;Laerm;57665;51.436;5.978;2022-11-20T00:44:26;40.01;38.58;41.64;;
67320;Laerm;57665;51.436;5.978;2022-11-20T00:44:36;40.14;38.89;41.31;;
67320;Laerm;57665;51.436;5.978;2022-11-20T00:44:47;40.36;39.26;41.51;;
67320;Laerm;57665;51.436;5.978;2022-11-20T00:44:57;40.42;38.71;41.56;;
67320;Laerm;57665;51.436;5.978;2022-11-20T00:45:07;40.40;39.07;41.37;;
67320;Laerm;57665;51.436;5.978;2022-11-20T00:45:17;40.48;39.22;41.87;;
67320;Laerm;57665;51.436;5.978;2022-11-20T00:45:28;40.78;39.54;42.16;;
67320;Laerm;57665;51.436;5.978;2022-11-20T00:45:38;40.78;39.55;42.04;;
67320;Laerm;57665;51.436;5.978;2022-11-20T00:45:55;41.47;40.29;42.90;;
67320;Laerm;57665;51.436;5.978;2022-11-20T00:46:06;41.16;39.10;43.36;;
67320;Laerm;57665;51.436;5.978;2022-11-20T00:46:19;39.53;37.93;41.59;;
67320;Laerm;57665;51.436;5.978;2022-11-20T00:46:29;39.24;38.16;41.08;;
67320;Laerm;57665;51.436;5.978;2022-11-20T00:46:39;39.22;37.87;40.42;;
67320;Laerm;57665;51.436;5.978;2022-11-20T00:46:50;39.42;38.06;41.67;;
67320;Laerm;57665;51.436;5.978;2022-11-20T00:47:00;39.86;38.12;43.36;;
67320;Laerm;57665;51.436;5.978;2022-11-20T00:47:10;40.03;38.76;41.88;;
67320;Laerm;57665;51.436;5.978;2022-11-20T00:47:20;39.84;38.38;41.67;;
67320;Laerm;57665;51.436;5.978;2022-11-20T00:47:30;39.91;38.80;41.43;;
67320;Laerm;57665;51.436;5.978;2022-11-20T00:47:41;40.16;38.75;42.39;;
67320;Laerm;57665;51.436;5.978;2022-11-20T00:47:51;40.65;39.27;43.24;;
67320;Laerm;57665;51.436;5.978;2022-11-20T00:48:01;39.96;38.71;41.81;;
67320;Laerm;57665;51.436;5.978;2022-11-20T00:48:11;40.08;38.66;41.84;;
67320;Laerm;57665;51.436;5.978;2022-11-20T00:48:22;40.17;38.46;42.00;;
67320;Laerm;57665;51.436;5.978;2022-11-20T00:48:32;40.07;38.69;42.29;;
67320;Laerm;57665;51.436;5.978;2022-11-20T00:48:43;40.19;38.95;42.08;;
67320;Laerm;57665;51.436;5.978;2022-11-20T00:48:53;40.46;39.14;42.21;;
67320;Laerm;57665;51.436;5.978;2022-11-20T00:49:03;40.56;39.39;42.63;;
67320;Laerm;57665;51.436;5.978;2022-11-20T00:49:14;41.06;39.47;42.60;;
67320;Laerm;57665;51.436;5.978;2022-11-20T00:49:25;41.17;39.97;42.60;;
67320;Laerm;57665;51.436;5.978;2022-11-20T00:49:35;40.96;39.73;42.00;;
67320;Laerm;57665;51.436;5.978;2022-11-20T00:49:45;41.12;39.90;42.32;;
67320;Laerm;57665;51.436;5.978;2022-11-20T00:49:55;41.53;40.25;42.63;;
67320;Laerm;57665;51.436;5.978;2022-11-20T00:50:05;40.65;39.02;41.93;;
67320;Laerm;57665;51.436;5.978;2022-11-20T00:50:16;39.32;38.07;40.75;;
67320;Laerm;57665;51.436;5.978;2022-11-20T00:50:26;39.13;38.10;40.28;;
67320;Laerm;57665;51.436;5.978;2022-11-20T00:50:36;39.17;38.30;40.19;;
67320;Laerm;57665;51.436;5.978;2022-11-20T00:50:46;39.38;38.21;40.37;;
67320;Laerm;57665;51.436;5.978;2022-11-20T00:50:57;39.33;38.22;40.45;;
67320;Laerm;57665;51.436;5.978;2022-11-20T00:51:08;39.67;38.20;40.90;;
67320;Laerm;57665;51.436;5.978;2022-11-20T00:51:19;39.71;38.45;40.88;;
67320;Laerm;57665;51.436;5.978;2022-11-20T00:51:30;39.56;38.44;40.93;;
67320;Laerm;57665;51.436;5.978;2022-11-20T00:51:40;39.67;38.20;41.01;;
67320;Laerm;57665;51.436;5.978;2022-11-20T00:51:50;39.75;38.37;40.74;;
67320;Laerm;57665;51.436;5.978;2022-11-20T00:52:01;39.74;38.26;40.94;;
67320;Laerm;57665;51.436;5.978;2022-11-20T00:52:11;39.88;38.53;41.20;;
67320;Laerm;57665;51.436;5.978;2022-11-20T00:52:21;39.86;38.56;41.16;;
67320;Laerm;57665;51.436;5.978;2022-11-20T00:52:31;40.01;38.53;41.49;;
67320;Laerm;57665;51.436;5.978;2022-11-20T00:52:42;39.98;38.61;41.43;;
67320;Laerm;57665;51.436;5.978;2022-11-20T00:52:52;40.28;39.02;41.29;;
67320;Laerm;57665;51.436;5.978;2022-11-20T00:53:02;40.17;38.97;41.32;;
67320;Laerm;57665;51.436;5.978;2022-11-20T00:53:12;40.26;39.11;41.43;;
67320;Laerm;57665;51.436;5.978;2022-11-20T00:53:22;40.47;39.48;41.34;;
67320;Laerm;57665;51.436;5.978;2022-11-20T00:53:33;40.58;39.35;41.79;;
67320;Laerm;57665;51.436;5.978;2022-11-20T00:53:43;40.87;39.70;42.27;;
67320;Laerm;57665;51.436;5.978;2022-11-20T00:53:57;41.00;39.91;42.35;;
67320;Laerm;57665;51.436;5.978;2022-11-20T00:54:07;41.47;40.20;42.75;;
67320;Laerm;57665;51.436;5.978;2022-11-20T00:54:17;40.29;38.67;41.92;;
67320;Laerm;57665;51.436;5.978;2022-11-20T00:54:28;39.09;38.11;40.24;;
67320;Laerm;57665;51.436;5.978;2022-11-20T00:54:38;39.14;37.82;40.00;;
67320;Laerm;57665;51.436;5.978;2022-11-20T00:54:48;39.10;37.98;40.26;;
67320;Laerm;57665;51.436;5.978;2022-11-20T00:55:02;39.35;38.05;40.45;;
67320;Laerm;57665;51.436;5.978;2022-11-20T00:55:12;39.68;38.39;40.70;;
67320;Laerm;57665;51.436;5.978;2022-11-20T00:55:22;39.97;38.89;41.24;;
67320;Laerm;57665;51.436;5.978;2022-11-20T00:55:35;39.76;38.48;41.86;;
67320;Laerm;57665;51.436;5.978;2022-11-20T00:55:59;39.82;38.48;41.47;;
67320;Laerm;57665;51.436;5.978;2022-11-20T00:56:12;39.96;38.59;41.66;;
67320;Laerm;57665;51.436;5.978;2022-11-20T00:56:23;39.93;38.41;41.86;;
67320;Laerm;57665;51.436;5.978;2022-11-20T00:56:33;39.98;38.55;41.41;;
67320;Laerm;57665;51.436;5.978;2022-11-20T00:56:43;39.99;38.62;41.35;;
67320;Laerm;57665;51.436;5.978;2022-11-20T00:56:53;40.81;38.90;47.39;;
67320;Laerm;57665;51.436;5.978;2022-11-20T00:57:04;40.58;39.43;42.05;;
67320;Laerm;57665;51.436;5.978;2022-11-20T00:57:14;41.07;39.57;42.38;;
67320;Laerm;57665;51.436;5.978;2022-11-20T00:57:24;42.38;39.98;46.17;;
67320;Laerm;57665;51.436;5.978;2022-11-20T00:57:35;41.17;39.74;43.57;;
67320;Laerm;57665;51.436;5.978;2022-11-20T00:57:45;41.44;40.01;43.26;;
67320;Laerm;57665;51.436;5.978;2022-11-20T00:57:55;41.35;40.31;42.41;;
67320;Laerm;57665;51.436;5.978;2022-11-20T00:58:05;41.59;40.26;42.69;;
67320;Laerm;57665;51.436;5.978;2022-11-20T00:58:16;41.12;39.24;42.93;;
67320;Laerm;57665;51.436;5.978;2022-11-20T00:58:28;39.50;38.10;40.61;;
67320;Laerm;57665;51.436;5.978;2022-11-20T00:58:40;39.35;38.27;41.03;;
67320;Laerm;57665;51.436;5.978;2022-11-20T00:58:51;39.46;38.10;40.78;;
67320;Laerm;57665;51.436;5.978;2022-11-20T00:59:01;39.86;38.53;42.16;;
67320;Laerm;57665;51.436;5.978;2022-11-20T00:59:12;39.81;38.30;41.89;;
67320;Laerm;57665;51.436;5.978;2022-11-20T00:59:22;40.38;38.92;45.50;;
67320;Laerm;57665;51.436;5.978;2022-11-20T00:59:32;39.85;38.35;41.59;;
67320;Laerm;57665;51.436;5.978;2022-11-20T00:59:43;39.86;38.31;41.44;;
67320;Laerm;57665;51.436;5.978;2022-11-20T00:59:53;39.96;38.69;41.11;;